Time;durP1;ratioP1;P1;durP2;ratioP2;P2;SDS_P1;SDS_P2;PMS_P1;PMS_P2;Temp;Humidity;BMP_temperature;BMP_pressure;BME280_temperature;BME280_humidity;BME280_pressure;Samples;Min_cycle;Max_cycle;Signal;HPM_P1;HPM_P2
2022/11/18 00:01:21;;;;;;;7.18;1.10;;;;;;;17.23;100.00;94661.22;5098281;28;20078;-45
2022/11/18 00:03:50;;;;;;;1.60;0.82;;;;;;;17.16;100.00;94673.84;5096289;28;20059;-42
2022/11/18 00:06:21;;;;;;;2.22;0.85;;;;;;;17.29;100.00;94657.66;5099657;28;20086;-40
2022/11/18 00:08:50;;;;;;;2.10;0.93;;;;;;;17.31;100.00;94661.72;5097980;28;20072;-42
2022/11/18 00:16:53;;;;;;;2.17;0.90;;;;;;;17.85;100.00;94645.59;5089663;28;20079;-44
2022/11/18 00:19:23;;;;;;;2.08;0.80;;;;;;;17.86;100.00;94647.25;5097124;28;20109;-48
2022/11/18 00:21:54;;;;;;;2.03;0.90;;;;;;;17.97;100.00;94642.94;5097971;28;20075;-40
2022/11/18 00:24:22;;;;;;;2.33;0.85;;;;;;;17.97;100.00;94649.06;5098442;28;20540;-42
2022/11/18 00:26:51;;;;;;;2.10;0.80;;;;;;;17.98;100.00;94642.69;5094996;28;20561;-42
2022/11/18 00:29:19;;;;;;;1.67;0.90;;;;;;;18.03;100.00;94634.81;5096295;28;20083;-43
2022/11/18 00:31:48;;;;;;;1.10;0.80;;;;;;;18.05;100.00;94644.41;5096151;28;20770;-41
2022/11/18 00:34:18;;;;;;;2.22;0.80;;;;;;;18.07;100.00;94640.47;5098166;28;20067;-42
2022/11/18 00:36:46;;;;;;;1.15;0.55;;;;;;;17.97;100.00;94638.41;5097465;28;20087;-42
2022/11/18 00:39:18;;;;;;;1.35;0.80;;;;;;;18.10;100.00;94641.84;5099440;28;20475;-41
2022/11/18 00:44:33;;;;;;;3.10;0.90;;;;;;;17.80;100.00;94637.50;5093327;28;20083;-45
2022/11/18 00:47:01;;;;;;;1.70;0.80;;;;;;;17.94;100.00;94624.75;5099552;28;20130;-44
2022/11/18 00:49:30;;;;;;;2.88;0.90;;;;;;;18.02;100.00;94629.69;5095965;28;20098;-42
2022/11/18 00:52:00;;;;;;;2.05;0.82;;;;;;;18.10;100.00;94625.84;5097002;28;20068;-42
2022/11/18 00:54:29;;;;;;;2.22;0.80;;;;;;;18.09;100.00;94624.22;5077827;28;20063;-41
2022/11/18 00:56:58;;;;;;;1.67;0.77;;;;;;;18.00;100.00;94619.28;5097025;28;21737;-42
2022/11/18 00:59:26;;;;;;;1.40;0.70;;;;;;;18.09;100.00;94611.69;5096393;28;20125;-46
2022/11/18 01:01:55;;;;;;;0.70;0.50;;;;;;;18.15;100.00;94613.44;5098929;28;20067;-43
2022/11/18 01:04:23;;;;;;;1.02;0.80;;;;;;;18.13;100.00;94612.84;5097394;28;20120;-42
2022/11/18 01:06:52;;;;;;;1.17;0.57;;;;;;;18.20;100.00;94615.38;5097205;28;20079;-40
2022/11/18 01:09:20;;;;;;;1.45;0.70;;;;;;;18.09;100.00;94609.03;5098837;28;20082;-43
2022/11/18 01:14:36;;;;;;;2.90;1.30;;;;;;;18.08;100.00;94610.09;5107679;28;20070;-39
2022/11/18 01:17:04;;;;;;;2.83;1.63;;;;;;;18.16;100.00;94616.91;5100198;28;20082;-41
2022/11/18 01:19:33;;;;;;;2.42;1.60;;;;;;;18.24;100.00;94604.00;5101968;28;20087;-46
2022/11/18 01:22:02;;;;;;;2.88;1.50;;;;;;;18.16;100.00;94609.69;5101353;28;20086;-39
2022/11/18 01:24:31;;;;;;;2.83;1.70;;;;;;;18.16;100.00;94609.69;5103076;28;20083;-46
2022/11/18 01:27:01;;;;;;;2.17;1.20;;;;;;;18.17;100.00;94607.84;5100681;28;20545;-43
2022/11/18 01:29:30;;;;;;;2.80;1.45;;;;;;;18.01;100.00;94620.09;5100517;28;20070;-42
2022/11/18 01:31:58;;;;;;;2.70;1.60;;;;;;;17.86;100.00;94609.09;5098651;28;20075;-40
2022/11/18 01:34:46;;;;;;;2.53;1.77;;;;;;;17.68;100.00;94605.50;5095902;28;20090;-47
2022/11/18 01:37:15;;;;;;;1.80;1.27;;;;;;;17.79;100.00;94603.91;5098529;28;20078;-44
2022/11/18 01:39:43;;;;;;;2.38;1.50;;;;;;;17.83;100.00;94605.06;5100052;28;20075;-43
2022/11/18 01:42:15;;;;;;;1.95;1.60;;;;;;;17.98;100.00;94599.22;5102902;28;20090;-41
2022/11/18 01:45:03;;;;;;;2.22;1.50;;;;;;;18.06;100.00;94579.34;5101391;28;20083;-41
2022/11/18 01:47:35;;;;;;;4.07;1.30;;;;;;;17.97;100.00;94585.06;5100447;28;20114;-43
2022/11/18 01:50:05;;;;;;;1.95;1.17;;;;;;;17.95;100.00;94584.50;5101317;28;20809;-41
2022/11/18 01:52:35;;;;;;;2.67;1.23;;;;;;;17.98;100.00;94573.34;5099948;28;20094;-43
2022/11/18 01:55:07;;;;;;;1.75;1.27;;;;;;;18.03;100.00;94576.13;5099579;28;20075;-42
2022/11/18 01:57:37;;;;;;;2.85;1.05;;;;;;;18.02;100.00;94576.34;5098602;28;20103;-42
2022/11/18 02:00:07;;;;;;;1.85;1.10;;;;;;;18.03;100.00;94581.47;5104169;28;20067;-41
2022/11/18 02:02:37;;;;;;;2.03;1.27;;;;;;;18.07;100.00;94576.47;5101194;28;20079;-42
2022/11/18 02:05:08;;;;;;;1.83;1.20;;;;;;;18.06;100.00;94590.03;5102496;28;20091;-42
2022/11/18 02:07:39;;;;;;;1.25;0.90;;;;;;;18.06;100.00;94582.81;5100830;28;20086;-44
2022/11/18 02:10:08;;;;;;;1.85;1.20;;;;;;;18.09;100.00;94592.22;5103798;28;20086;-42
2022/11/18 02:12:38;;;;;;;1.80;1.00;;;;;;;18.08;100.00;94585.28;5099789;28;20086;-46
2022/11/18 02:15:08;;;;;;;2.55;1.20;;;;;;;18.02;100.00;94593.16;5101867;28;20075;-41
2022/11/18 02:17:44;;;;;;;1.53;1.00;;;;;;;18.04;100.00;94584.94;5098151;28;20083;-46
2022/11/18 02:20:23;;;;;;;1.58;1.10;;;;;;;17.99;100.00;94595.50;5097340;28;20504;-43
2022/11/18 02:23:22;;;;;;;1.92;1.00;;;;;;;17.97;100.00;94587.75;5083212;28;20110;-41
2022/11/18 02:26:16;;;;;;;1.60;1.00;;;;;;;17.87;100.00;94590.19;5101992;28;20087;-43
2022/11/18 02:28:57;;;;;;;1.05;1.00;;;;;;;17.86;100.00;94595.75;5097587;28;20090;-42
2022/11/18 02:31:29;;;;;;;2.08;1.23;;;;;;;17.89;100.00;94589.94;5098699;28;20079;-43
2022/11/18 02:34:01;;;;;;;1.90;1.00;;;;;;;17.90;100.00;94600.41;5100840;28;20090;-44
2022/11/18 02:36:37;;;;;;;2.97;1.40;;;;;;;17.91;100.00;94602.00;5098784;28;20662;-41
2022/11/18 02:39:08;;;;;;;3.72;1.30;;;;;;;17.92;100.00;94598.28;5100163;28;20071;-42
2022/11/18 02:41:39;;;;;;;2.75;1.42;;;;;;;17.85;100.00;94599.47;5099999;28;20095;-45
2022/11/18 02:44:12;;;;;;;2.97;1.63;;;;;;;17.80;100.00;94594.84;5101330;28;20090;-42
2022/11/18 02:46:41;;;;;;;2.65;1.70;;;;;;;17.87;100.00;94600.88;5098295;28;20110;-45
2022/11/18 02:49:14;;;;;;;4.97;1.73;;;;;;;17.96;100.00;94593.28;5101130;28;20083;-42
2022/11/18 02:51:43;;;;;;;2.75;1.50;;;;;;;18.05;100.00;94594.56;5092733;28;21493;-41
2022/11/18 02:54:12;;;;;;;3.20;1.55;;;;;;;18.06;100.00;94598.81;5100272;28;20086;-43
2022/11/18 02:56:41;;;;;;;1.73;1.33;;;;;;;17.97;100.00;94595.75;5096829;28;20533;-41
2022/11/18 02:59:11;;;;;;;3.28;1.25;;;;;;;17.92;100.00;94594.81;5099277;28;20083;-44
2022/11/18 03:01:40;;;;;;;0.90;0.80;;;;;;;17.90;100.00;94592.41;5095587;28;20079;-41
2022/11/18 03:04:08;;;;;;;2.08;1.00;;;;;;;17.69;100.00;94598.34;5102143;28;20071;-43
2022/11/18 03:06:38;;;;;;;2.63;1.10;;;;;;;17.69;100.00;94595.66;5095214;28;20067;-42
2022/11/18 03:09:11;;;;;;;2.10;1.10;;;;;;;17.76;100.00;94597.19;5097849;28;20075;-42
2022/11/18 03:11:46;;;;;;;2.25;1.00;;;;;;;17.66;100.00;94598.78;5096463;28;20517;-42
2022/11/18 03:14:23;;;;;;;2.08;1.10;;;;;;;17.68;100.00;94594.84;5081801;28;20080;-41
2022/11/18 03:16:58;;;;;;;1.08;0.85;;;;;;;17.72;100.00;94590.69;5097129;28;20787;-41
2022/11/18 03:19:34;;;;;;;1.38;1.00;;;;;;;17.69;100.00;94591.13;5101928;28;20048;-41
2022/11/18 03:22:10;;;;;;;2.55;1.08;;;;;;;17.70;100.00;94587.44;5094451;28;20146;-41
2022/11/18 03:24:41;;;;;;;1.60;1.00;;;;;;;17.85;100.00;94594.13;5093590;28;20083;-43
2022/11/18 03:27:12;;;;;;;;;;;;;;;17.89;100.00;94596.09;5099454;28;20074;-40
2022/11/18 03:29:45;;;;;;;1.80;1.10;;;;;;;17.85;100.00;94599.47;5079541;28;19963;-41
2022/11/18 03:32:17;;;;;;;2.33;1.05;;;;;;;17.79;100.00;94601.25;5094771;28;20434;-42
2022/11/18 03:34:48;;;;;;;3.38;1.10;;;;;;;17.74;100.00;94587.75;5098389;28;20087;-44
2022/11/18 03:37:19;;;;;;;1.60;0.95;;;;;;;17.88;100.00;94589.16;5097472;28;20067;-41
2022/11/18 03:39:49;;;;;;;;;;;;;;;17.90;100.00;94583.59;5075698;28;20078;-42
2022/11/18 03:42:23;;;;;;;2.63;1.17;;;;;;;17.85;100.00;94594.94;5098896;28;19967;-41
2022/11/18 03:44:55;;;;;;;2.85;1.20;;;;;;;17.88;100.00;94597.16;5095221;28;20513;-40
2022/11/18 03:47:27;;;;;;;1.70;1.00;;;;;;;17.59;100.00;94608.78;5096635;28;20551;-43
2022/11/18 03:50:00;;;;;;;1.75;0.63;;;;;;;17.73;100.00;94607.47;5097413;28;20102;-41
2022/11/18 03:52:31;;;;;;;4.13;0.70;;;;;;;17.76;100.00;94601.72;5095426;28;20079;-41
2022/11/18 03:55:04;;;;;;;1.05;0.80;;;;;;;17.66;100.00;94596.94;5096190;28;20071;-47
2022/11/18 03:57:38;;;;;;;1.67;1.02;;;;;;;17.74;100.00;94607.22;5098514;28;20067;-45
2022/11/18 04:00:09;;;;;;;1.35;0.90;;;;;;;17.75;100.00;94614.19;5094886;28;20070;-45
2022/11/18 04:02:38;;;;;;;1.33;0.80;;;;;;;17.66;100.00;94612.94;5089647;28;20075;-42
2022/11/18 04:05:09;;;;;;;2.13;1.00;;;;;;;17.85;100.00;94620.81;5094820;28;20078;-40
2022/11/18 04:07:40;;;;;;;1.25;0.80;;;;;;;17.71;100.00;94623.69;5099592;28;20117;-43
2022/11/18 04:10:12;;;;;;;2.90;0.90;;;;;;;17.39;100.00;94627.78;5097578;28;20075;-41
2022/11/18 04:12:44;;;;;;;0.90;0.65;;;;;;;17.52;100.00;94628.34;5099894;28;20059;-42
2022/11/18 04:15:14;;;;;;;2.35;0.60;;;;;;;17.41;100.00;94633.66;5092783;28;20067;-42
2022/11/18 04:17:43;;;;;;;2.63;0.90;;;;;;;17.42;100.00;94636.13;5103645;28;20090;-40
2022/11/18 04:20:15;;;;;;;1.23;0.70;;;;;;;17.55;100.00;94625.22;5099593;28;20082;-40
2022/11/18 04:22:44;;;;;;;3.17;0.73;;;;;;;17.39;100.00;94639.25;5100335;28;20132;-46
2022/11/18 04:25:13;;;;;;;1.40;0.50;;;;;;;17.53;100.00;94632.63;5107246;28;20109;-42
2022/11/18 04:27:41;;;;;;;2.83;1.00;;;;;;;17.43;100.00;94637.72;5097490;28;20112;-41
2022/11/18 04:30:11;;;;;;;1.35;0.77;;;;;;;17.43;100.00;94640.41;5103561;28;20556;-40
2022/11/18 04:32:41;;;;;;;2.85;0.82;;;;;;;17.26;100.00;94634.94;5098120;28;20072;-41
2022/11/18 04:35:09;;;;;;;2.58;0.93;;;;;;;17.08;100.00;94645.72;5094152;28;20059;-41
2022/11/18 04:37:37;;;;;;;2.65;0.63;;;;;;;16.99;100.00;94639.09;5096058;28;20072;-40
2022/11/18 04:40:07;;;;;;;2.88;0.73;;;;;;;16.77;100.00;94636.16;5092969;28;20094;-42
2022/11/18 04:42:36;;;;;;;0.40;0.40;;;;;;;17.04;100.00;94633.91;5097237;28;20071;-48
2022/11/18 04:45:05;;;;;;;0.85;0.50;;;;;;;17.25;100.00;94628.00;5093123;28;20075;-40
2022/11/18 04:47:34;;;;;;;0.82;0.50;;;;;;;17.17;100.00;94631.03;5098852;28;20126;-40
2022/11/18 04:50:05;;;;;;;0.85;0.50;;;;;;;17.33;100.00;94632.97;5102432;28;20075;-41
2022/11/18 04:52:33;;;;;;;1.70;0.55;;;;;;;17.36;100.00;94637.03;5101272;28;20079;-43
2022/11/18 04:55:01;;;;;;;0.50;0.40;;;;;;;17.58;100.00;94631.13;5108500;28;20083;-48
2022/11/18 04:57:30;;;;;;;0.50;0.30;;;;;;;17.58;100.00;94628.44;5097821;28;20071;-41
2022/11/18 04:59:58;;;;;;;0.38;0.35;;;;;;;17.40;100.00;94626.72;5103595;28;20070;-45
2022/11/18 05:02:27;;;;;;;1.40;0.35;;;;;;;17.55;100.00;94624.44;5100283;28;20070;-41
2022/11/18 05:04:55;;;;;;;1.83;0.40;;;;;;;17.57;100.00;94619.66;5102654;28;20088;-47
2022/11/18 05:07:25;;;;;;;0.35;0.28;;;;;;;17.65;100.00;94621.16;5099655;28;20067;-43
2022/11/18 05:09:54;;;;;;;0.75;0.50;;;;;;;17.79;100.00;94619.91;5103663;28;20068;-40
2022/11/18 05:15:09;;;;;;;0.63;0.28;;;;;;;17.95;100.00;94619.16;5098988;28;20075;-41
2022/11/18 05:17:37;;;;;;;0.57;0.28;;;;;;;17.64;100.00;94620.34;5099038;28;20064;-41
2022/11/18 05:20:06;;;;;;;0.93;0.35;;;;;;;17.69;100.00;94612.47;5101494;28;20071;-40
2022/11/18 05:22:36;;;;;;;0.95;0.30;;;;;;;17.62;100.00;94616.28;5098486;28;20074;-41
2022/11/18 05:25:06;;;;;;;0.27;0.27;;;;;;;17.22;100.00;94622.34;5100659;28;20407;-45
2022/11/18 05:27:34;;;;;;;1.35;0.40;;;;;;;17.46;100.00;94623.16;5100205;28;20501;-39
2022/11/18 05:30:03;;;;;;;0.50;0.30;;;;;;;17.33;100.00;94618.84;5101692;28;20075;-43
2022/11/18 05:32:31;;;;;;;0.80;0.25;;;;;;;17.58;100.00;94615.13;5100806;28;20664;-42
2022/11/18 05:35:00;;;;;;;1.23;0.30;;;;;;;17.62;100.00;94614.44;5103177;28;20082;-46
2022/11/18 05:37:28;;;;;;;0.22;0.22;;;;;;;17.65;100.00;94619.31;5095824;28;20086;-41
2022/11/18 05:39:58;;;;;;;0.70;0.40;;;;;;;17.51;100.00;94612.59;5100369;28;20102;-41
2022/11/18 05:45:12;;;;;;;0.60;0.30;;;;;;;17.16;100.00;94618.72;5106097;28;20087;-43
2022/11/18 05:50:22;;;;;;;0.63;0.30;;;;;;;17.65;100.00;94621.16;5102486;28;20082;-45
2022/11/18 05:52:51;;;;;;;1.27;0.30;;;;;;;17.40;100.00;94621.41;5098999;28;20075;-43
2022/11/18 05:55:22;;;;;;;1.45;0.30;;;;;;;17.31;100.00;94629.75;5100753;28;20083;-42
2022/11/18 05:57:51;;;;;;;0.40;0.30;;;;;;;17.51;100.00;94629.38;5095305;28;20084;-47
2022/11/18 06:00:19;;;;;;;0.30;0.30;;;;;;;17.24;100.00;94626.41;5100656;28;20063;-44
2022/11/18 06:02:49;;;;;;;0.25;0.22;;;;;;;17.19;100.00;94628.91;5095321;28;20051;-41
2022/11/18 06:05:18;;;;;;;1.75;0.40;;;;;;;17.22;100.00;94635.66;5097369;28;20763;-42
2022/11/18 06:07:47;;;;;;;1.20;0.63;;;;;;;16.84;100.00;94626.22;5095818;28;20075;-42
2022/11/18 06:10:18;;;;;;;0.52;0.40;;;;;;;17.44;100.00;94623.34;5101824;28;20090;-43
2022/11/18 06:12:51;;;;;;;0.30;0.30;;;;;;;17.15;100.00;94632.28;5099661;28;20085;-40
2022/11/18 06:15:21;;;;;;;0.30;0.30;;;;;;;17.08;100.00;94632.41;5098586;28;20079;-42
2022/11/18 06:17:50;;;;;;;;;;;;;;;17.03;100.00;94629.59;5102435;28;20525;-43
2022/11/18 06:20:19;;;;;;;1.00;1.00;;;;;;;16.56;100.00;94640.94;5096935;28;20401;-41
2022/11/18 06:22:48;;;;;;;2.13;0.90;;;;;;;16.58;100.00;94638.03;5100659;28;20072;-43
2022/11/18 06:25:17;;;;;;;0.90;0.90;;;;;;;16.69;100.00;94634.59;5097999;28;20086;-40
2022/11/18 06:27:46;;;;;;;0.93;0.90;;;;;;;16.79;100.00;94640.22;5095463;28;20083;-45
2022/11/18 06:30:16;;;;;;;0.95;0.93;;;;;;;16.78;100.00;94638.56;5098747;28;20059;-42
2022/11/18 06:32:44;;;;;;;0.90;0.90;;;;;;;16.53;100.00;94640.56;5097618;28;20090;-45
2022/11/18 06:35:13;;;;;;;0.90;0.90;;;;;;;16.75;100.00;94631.03;5092376;28;20083;-42
2022/11/18 06:37:41;;;;;;;1.00;1.00;;;;;;;16.27;100.00;94647.84;5093610;28;20089;-46
2022/11/18 06:40:11;;;;;;;1.42;0.90;;;;;;;16.19;100.00;94663.31;5092546;28;20072;-46
2022/11/18 06:45:27;;;;;;;2.05;0.90;;;;;;;15.56;100.00;94659.91;5102607;28;20667;-41
2022/11/18 06:47:56;;;;;;;1.80;0.80;;;;;;;15.98;100.00;94673.38;5100191;28;20102;-43
2022/11/18 06:50:24;;;;;;;1.08;0.85;;;;;;;16.02;100.00;94661.25;5099706;28;20086;-42
2022/11/18 06:52:53;;;;;;;0.80;0.80;;;;;;;15.31;100.00;94675.88;5098071;28;20087;-41
2022/11/18 06:55:21;;;;;;;0.80;0.80;;;;;;;15.44;100.00;94678.38;5102202;28;20086;-46
2022/11/18 06:57:49;;;;;;;0.80;0.80;;;;;;;15.67;100.00;94682.28;5100122;28;20052;-43
2022/11/18 07:00:18;;;;;;;1.83;1.08;;;;;;;15.79;100.00;94679.72;5100591;28;20071;-36
2022/11/18 07:02:48;;;;;;;1.38;0.90;;;;;;;15.71;100.00;94695.94;5095538;28;20094;-46
2022/11/18 07:05:17;;;;;;;2.55;1.02;;;;;;;16.02;100.00;94692.34;5097054;28;20075;-47
2022/11/18 07:07:45;;;;;;;0.80;0.80;;;;;;;16.02;100.00;94692.34;5095056;28;20080;-45
2022/11/18 07:10:14;;;;;;;0.82;0.80;;;;;;;15.59;100.00;94709.94;5097364;28;20067;-43
2022/11/18 07:12:42;;;;;;;0.80;0.80;;;;;;;15.28;100.00;94713.47;5105056;28;20087;-41
2022/11/18 07:15:11;;;;;;;1.10;0.82;;;;;;;15.96;100.00;94707.31;5095614;28;20112;-41
2022/11/18 07:17:39;;;;;;;0.90;0.90;;;;;;;15.88;100.00;94720.91;5097379;28;20075;-45
2022/11/18 07:20:10;;;;;;;0.80;0.80;;;;;;;15.52;100.00;94711.84;5095964;28;20082;-46
2022/11/18 07:22:38;;;;;;;0.80;0.80;;;;;;;15.27;100.00;94717.13;5100810;28;20084;-40
2022/11/18 07:25:07;;;;;;;0.80;0.80;;;;;;;15.74;100.00;94724.75;5102343;28;20083;-45
2022/11/18 07:27:36;;;;;;;0.82;0.82;;;;;;;15.02;100.00;94729.59;5100673;28;20086;-40
2022/11/18 07:30:05;;;;;;;0.80;0.80;;;;;;;15.25;100.00;94729.84;5097436;28;20101;-46
2022/11/18 07:32:33;;;;;;;0.90;0.90;;;;;;;15.23;100.00;94733.72;5099969;28;20084;-43
2022/11/18 07:35:20;;;;;;;0.80;0.80;;;;;;;15.60;100.00;94735.47;5094550;28;20075;-43
2022/11/18 07:37:48;;;;;;;0.90;0.90;;;;;;;15.53;100.00;94733.91;5079059;28;20080;-46
2022/11/18 07:40:17;;;;;;;1.00;0.90;;;;;;;15.50;100.00;94739.66;5101986;28;20086;-44
2022/11/18 07:42:46;;;;;;;0.95;0.90;;;;;;;15.88;100.00;94744.84;5099659;28;20075;-43
2022/11/18 07:45:14;;;;;;;0.98;0.88;;;;;;;15.03;100.00;94750.59;5094098;28;20439;-43
2022/11/18 07:47:42;;;;;;;0.90;0.90;;;;;;;14.99;100.00;94746.75;5097845;28;20086;-40
2022/11/18 07:50:11;;;;;;;1.50;0.93;;;;;;;15.34;100.00;94757.72;5097247;28;20079;-39
2022/11/18 07:52:40;;;;;;;1.10;1.00;;;;;;;15.68;100.00;94766.28;5098522;28;20079;-44
2022/11/18 07:55:09;;;;;;;1.00;1.00;;;;;;;15.75;100.00;94761.72;5101280;28;20075;-42
2022/11/18 07:57:37;;;;;;;1.02;1.00;;;;;;;15.77;100.00;94761.53;5098629;28;20546;-43
2022/11/18 08:00:07;;;;;;;0.90;0.90;;;;;;;15.71;100.00;94776.47;5099577;28;20085;-50
2022/11/18 08:02:36;;;;;;;0.82;0.82;;;;;;;15.48;100.00;94782.34;5099340;28;20090;-46
2022/11/18 08:05:05;;;;;;;0.80;0.80;;;;;;;15.18;100.00;94772.38;5094043;28;20079;-45
2022/11/18 08:07:33;;;;;;;1.65;0.80;;;;;;;15.24;100.00;94780.47;5093170;28;20087;-40
2022/11/18 08:10:03;;;;;;;0.80;0.80;;;;;;;15.66;100.00;94784.31;5094581;28;20087;-43
2022/11/18 08:12:32;;;;;;;3.58;0.90;;;;;;;15.94;100.00;94785.69;5095689;28;20084;-40
2022/11/18 08:15:00;;;;;;;1.10;1.00;;;;;;;15.67;100.00;94785.91;5096338;28;20087;-44
2022/11/18 08:17:28;;;;;;;0.80;0.80;;;;;;;14.97;100.00;94793.94;5097284;28;20086;-45
2022/11/18 08:19:57;;;;;;;0.70;0.70;;;;;;;14.49;100.00;94795.16;5097332;28;20076;-45
2022/11/18 08:22:25;;;;;;;1.02;0.95;;;;;;;14.86;100.00;94802.56;5096565;28;20091;-43
2022/11/18 08:24:53;;;;;;;0.93;0.90;;;;;;;15.43;100.00;94808.75;5083256;28;20075;-43
2022/11/18 08:27:23;;;;;;;0.70;0.70;;;;;;;14.99;100.00;94804.34;5102645;28;20071;-42
2022/11/18 08:29:52;;;;;;;0.98;0.80;;;;;;;14.79;100.00;94807.88;5085036;28;20075;-43
2022/11/18 08:32:20;;;;;;;0.70;0.70;;;;;;;14.94;100.00;94803.13;5087698;28;20068;-44
2022/11/18 08:34:48;;;;;;;0.77;0.70;;;;;;;15.15;100.00;94814.47;5101108;28;20083;-39
2022/11/18 08:37:17;;;;;;;0.70;0.70;;;;;;;14.94;100.00;94820.91;5098122;28;20074;-41
2022/11/18 08:39:45;;;;;;;0.85;0.80;;;;;;;15.11;100.00;94816.72;5098155;28;20079;-43
2022/11/18 08:42:13;;;;;;;0.70;0.70;;;;;;;14.82;100.00;94826.03;5100055;28;20572;-46
2022/11/18 08:44:43;;;;;;;0.60;0.60;;;;;;;14.48;100.00;94830.63;5102895;28;20310;-40
2022/11/18 08:47:12;;;;;;;4.20;0.80;;;;;;;14.74;100.00;94828.94;5099264;28;20071;-43
2022/11/18 08:49:40;;;;;;;0.73;0.70;;;;;;;14.71;100.00;94832.03;5105293;28;20554;-44
2022/11/18 08:52:09;;;;;;;1.02;0.70;;;;;;;14.68;100.00;94835.09;5102083;28;20079;-45
2022/11/18 08:54:37;;;;;;;0.80;0.80;;;;;;;14.78;100.00;94838.13;5100668;28;20075;-40
2022/11/18 08:57:06;;;;;;;0.82;0.82;;;;;;;14.78;100.00;94834.66;5093334;28;20087;-41
2022/11/18 08:59:34;;;;;;;0.77;0.70;;;;;;;14.76;100.00;94840.16;5094774;28;20142;-39
2022/11/18 09:02:04;;;;;;;0.70;0.70;;;;;;;14.89;100.00;94834.78;5102913;28;20086;-47
2022/11/18 09:04:32;;;;;;;0.98;0.90;;;;;;;14.85;100.00;94844.19;5095136;28;20094;-44
2022/11/18 09:07:01;;;;;;;1.10;1.00;;;;;;;15.20;100.00;94844.63;5096593;28;20126;-42
2022/11/18 09:09:30;;;;;;;1.02;0.80;;;;;;;15.39;100.00;94836.78;5096740;28;20613;-44
2022/11/18 09:11:58;;;;;;;0.70;0.70;;;;;;;14.71;100.00;94851.41;5096906;28;20080;-40
2022/11/18 09:14:27;;;;;;;1.30;0.82;;;;;;;15.17;100.00;94845.09;5104281;28;20095;-43
2022/11/18 09:17:16;;;;;;;0.88;0.82;;;;;;;14.94;100.00;94858.06;5101863;28;20121;-43
2022/11/18 09:19:45;;;;;;;0.60;0.60;;;;;;;14.77;100.00;94854.25;5101590;28;20577;-46
2022/11/18 09:22:15;;;;;;;0.80;0.80;;;;;;;14.90;100.00;94847.06;5097842;28;20087;-46
2022/11/18 09:24:44;;;;;;;0.70;0.70;;;;;;;15.23;100.00;94861.19;5100142;28;20083;-43
2022/11/18 09:27:12;;;;;;;0.70;0.70;;;;;;;14.73;100.00;94859.16;5100860;28;20079;-42
2022/11/18 09:29:44;;;;;;;0.60;0.60;;;;;;;14.56;100.00;94864.13;5100598;28;20075;-41
2022/11/18 09:32:13;;;;;;;0.73;0.70;;;;;;;14.88;100.00;94862.38;5099157;28;20079;-49
2022/11/18 09:34:43;;;;;;;0.57;0.57;;;;;;;14.87;100.00;94854.63;5099471;28;20075;-42
2022/11/18 09:37:11;;;;;;;0.70;0.70;;;;;;;15.07;100.00;94844.72;5097334;28;20082;-44
2022/11/18 09:39:40;;;;;;;0.70;0.70;;;;;;;15.01;100.00;94864.16;5098203;28;20098;-40
2022/11/18 09:42:30;;;;;;;0.70;0.70;;;;;;;15.36;100.00;94859.25;5096951;28;20082;-45
2022/11/18 09:45:18;;;;;;;2.35;0.70;;;;;;;15.22;100.00;94873.66;5096781;28;20142;-43
2022/11/18 09:47:51;;;;;;;0.55;0.55;;;;;;;15.14;100.00;94865.91;5095993;28;20083;-42
2022/11/18 09:50:22;;;;;;;0.30;0.30;;;;;;;15.51;100.00;94871.44;5095878;28;20083;-44
2022/11/18 09:53:19;;;;;;;0.30;0.30;;;;;;;15.76;100.00;94877.66;5097849;28;20086;-43
2022/11/18 09:55:48;;;;;;;0.30;0.30;;;;;;;15.69;100.00;94866.25;5102207;28;20475;-40
2022/11/18 09:58:18;;;;;;;0.38;0.20;;;;;;;15.69;100.00;94868.91;5097659;28;20083;-43
2022/11/18 10:00:47;;;;;;;0.40;0.30;;;;;;;15.86;100.00;94866.50;5093857;28;20528;-46
2022/11/18 10:03:21;;;;;;;0.77;0.40;;;;;;;15.86;100.00;94877.13;5103318;28;20129;-43
2022/11/18 10:05:54;;;;;;;0.40;0.40;;;;;;;16.35;100.00;94878.19;5094974;28;20044;-47
2022/11/18 10:08:25;;;;;;;0.70;0.30;;;;;;;15.96;100.00;94871.34;5100192;28;20086;-41
2022/11/18 10:11:03;;;;;;;0.22;0.22;;;;;;;15.69;100.00;94870.72;5100141;28;20080;-41
2022/11/18 10:13:42;;;;;;;0.20;0.20;;;;;;;15.78;100.00;94878.22;5103492;28;20083;-46
2022/11/18 10:16:20;;;;;;;0.20;0.20;;;;;;;15.83;100.00;94880.25;5101881;28;20087;-42
2022/11/18 10:18:54;;;;;;;0.20;0.20;;;;;;;15.69;100.00;94881.34;5103373;28;20633;-49
2022/11/18 10:21:40;;;;;;;0.22;0.22;;;;;;;16.76;100.00;94879.44;5097749;28;20076;-39
2022/11/18 10:24:13;;;;;;;0.25;0.20;;;;;;;16.67;100.00;94878.06;5103064;28;20067;-40
2022/11/18 10:26:42;;;;;;;1.08;0.20;;;;;;;16.70;100.00;94874.94;5103187;28;20078;-47
2022/11/18 10:29:10;;;;;;;0.20;0.20;;;;;;;16.78;100.00;94878.16;5099764;28;20804;-44
2022/11/18 10:31:39;;;;;;;0.20;0.20;;;;;;;16.56;100.00;94883.06;5099640;28;20079;-48
2022/11/18 10:34:10;;;;;;;0.20;0.20;;;;;;;16.18;100.00;94867.28;5095490;28;20087;-46
2022/11/18 10:36:40;;;;;;;0.30;0.20;;;;;;;16.02;100.00;94897.88;5098307;28;20090;-48
2022/11/18 10:39:11;;;;;;;0.30;0.20;;;;;;;16.44;100.00;94882.16;5101550;28;20801;-44
2022/11/18 10:41:45;;;;;;;1.02;0.35;;;;;;;16.04;100.00;94892.38;5104735;28;20097;-43
2022/11/18 10:44:28;;;;;;;0.20;0.20;;;;;;;16.63;100.00;94896.31;5097824;28;20095;-45
2022/11/18 10:47:16;;;;;;;0.10;0.10;;;;;;;16.21;100.00;94880.16;5097617;28;20549;-43
2022/11/18 10:49:44;;;;;;;1.23;0.20;;;;;;;16.37;100.00;94884.06;5104102;28;20091;-44
2022/11/18 10:52:14;;;;;;;0.10;0.10;;;;;;;15.99;100.00;94889.53;5101218;28;20075;-42
2022/11/18 10:54:43;;;;;;;0.10;0.10;;;;;;;16.14;100.00;94892.69;5100851;28;20067;-42
2022/11/18 10:57:17;;;;;;;0.20;0.20;;;;;;;16.31;100.00;94883.13;5100688;28;20082;-41
2022/11/18 10:59:49;;;;;;;0.17;0.17;;;;;;;16.28;100.00;94894.19;5098709;28;20101;-44
2022/11/18 11:02:19;;;;;;;0.10;0.10;;;;;;;16.10;100.00;94902.09;5103204;28;20071;-42
2022/11/18 11:04:49;;;;;;;0.30;0.30;;;;;;;15.77;100.00;94897.88;5097515;28;20079;-40
2022/11/18 11:07:26;;;;;;;1.33;0.40;;;;;;;15.48;100.00;94909.84;5096889;28;20085;-42
2022/11/18 11:10:02;;;;;;;0.35;0.30;;;;;;;15.61;100.00;94898.34;5102910;28;20479;-46
2022/11/18 11:12:32;;;;;;;0.20;0.20;;;;;;;15.60;100.00;94899.38;5102894;28;20083;-45
2022/11/18 11:15:04;;;;;;;0.20;0.20;;;;;;;16.22;100.00;94892.41;5101436;28;20090;-42
2022/11/18 11:17:35;;;;;;;0.30;0.30;;;;;;;16.22;100.00;94894.25;5101946;28;20083;-43
2022/11/18 11:20:06;;;;;;;0.30;0.22;;;;;;;15.93;100.00;94891.19;5098550;28;20076;-43
2022/11/18 11:22:36;;;;;;;0.10;0.10;;;;;;;15.90;100.00;94896.97;5098562;28;20880;-40
2022/11/18 11:25:11;;;;;;;2.77;0.50;;;;;;;16.62;100.00;94892.03;5097574;28;20514;-39
2022/11/18 11:27:46;;;;;;;0.28;0.20;;;;;;;15.70;100.00;94905.06;5100547;28;20072;-41
2022/11/18 11:30:36;;;;;;;0.30;0.30;;;;;;;15.68;100.00;94896.50;5095360;28;20151;-40
2022/11/18 11:33:23;;;;;;;0.35;0.28;;;;;;;15.56;100.00;94903.50;5097517;28;20079;-46
2022/11/18 11:36:00;;;;;;;0.90;0.40;;;;;;;15.32;100.00;94911.19;5099451;28;20088;-43
2022/11/18 11:38:37;;;;;;;0.50;0.40;;;;;;;16.33;100.00;94899.66;5096797;28;20082;-46
2022/11/18 11:41:12;;;;;;;0.20;0.20;;;;;;;16.25;100.00;94904.47;5099282;28;20486;-45
2022/11/18 11:43:53;;;;;;;0.73;0.40;;;;;;;16.51;100.00;94901.53;5101973;28;20082;-43
2022/11/18 11:46:28;;;;;;;0.63;0.30;;;;;;;15.98;100.00;94898.53;5101577;28;20084;-42
2022/11/18 11:49:02;;;;;;;0.30;0.30;;;;;;;15.70;100.00;94918.38;5095904;28;20079;-42
2022/11/18 11:51:34;;;;;;;0.30;0.30;;;;;;;16.27;100.00;94905.03;5101036;28;20110;-42
2022/11/18 11:54:16;;;;;;;0.70;0.30;;;;;;;16.23;100.00;94914.50;5096826;28;20517;-42
2022/11/18 11:56:48;;;;;;;0.40;0.30;;;;;;;15.83;100.00;94912.16;5097137;28;20086;-40
2022/11/18 11:59:22;;;;;;;0.75;0.50;;;;;;;16.14;100.00;94911.31;5097250;28;20541;-41
2022/11/18 12:01:58;;;;;;;0.82;0.30;;;;;;;16.07;100.00;94907.84;5098361;28;20479;-45
2022/11/18 12:04:35;;;;;;;0.43;0.38;;;;;;;16.63;100.00;94914.94;5097202;28;20102;-42
2022/11/18 12:07:04;;;;;;;0.68;0.68;;;;;;;16.58;100.00;94912.13;5093544;28;20086;-46